Time;durP1;ratioP1;P1;durP2;ratioP2;P2;SDS_P1;SDS_P2;PMS_P1;PMS_P2;Temp;Humidity;BMP_temperature;BMP_pressure;BME280_temperature;BME280_humidity;BME280_pressure;Samples;Min_cycle;Max_cycle;Signal;HPM_P1;HPM_P2
2022/10/15 00:01:11;;;;;;;0.80;0.40;;;15.90;99.90;;;;;;5030876;28;20391;-75
2022/10/15 00:03:39;;;;;;;0.60;0.50;;;16.10;99.90;;;;;;5030260;28;20394;-75
2022/10/15 00:06:07;;;;;;;0.60;0.40;;;16.00;99.90;;;;;;5030786;28;20395;-75
2022/10/15 00:08:33;;;;;;;0.70;0.40;;;16.00;99.90;;;;;;5030592;28;20410;-74
2022/10/15 00:11:07;;;;;;;1.20;0.40;;;16.00;99.90;;;;;;5030728;28;20383;-76
2022/10/15 00:13:33;;;;;;;0.50;0.30;;;16.00;99.90;;;;;;5030080;28;20825;-75
2022/10/15 00:15:59;;;;;;;0.50;0.30;;;16.10;99.90;;;;;;5030024;28;21064;-75
2022/10/15 00:18:25;;;;;;;0.60;0.40;;;16.20;99.90;;;;;;5030446;28;20440;-75
2022/10/15 00:20:51;;;;;;;1.52;0.50;;;16.10;99.90;;;;;;5030643;28;20478;-75
2022/10/15 00:23:17;;;;;;;7.10;0.70;;;16.10;99.90;;;;;;5012143;28;20396;-76
2022/10/15 00:25:42;;;;;;;0.80;0.30;;;16.10;99.90;;;;;;5010770;28;20400;-75
2022/10/15 00:28:08;;;;;;;0.70;0.50;;;16.00;99.90;;;;;;5016046;28;20415;-75
2022/10/15 00:30:33;;;;;;;0.90;0.50;;;16.10;99.90;;;;;;5030329;28;20486;-75
2022/10/15 00:32:59;;;;;;;1.08;0.40;;;16.10;99.90;;;;;;5030085;28;20379;-74
2022/10/15 00:35:24;;;;;;;0.80;0.40;;;16.10;99.90;;;;;;5030326;28;20394;-75
2022/10/15 00:37:50;;;;;;;0.60;0.50;;;16.20;99.90;;;;;;5030206;28;20437;-74
2022/10/15 00:40:16;;;;;;;0.90;0.60;;;16.10;99.90;;;;;;5030350;28;20393;-74
2022/10/15 00:42:41;;;;;;;1.10;0.50;;;16.10;99.90;;;;;;5012224;28;20482;-74
2022/10/15 00:45:12;;;;;;;1.90;0.50;;;16.10;99.90;;;;;;5029256;28;20394;-74
2022/10/15 00:47:40;;;;;;;0.40;0.30;;;16.20;99.90;;;;;;5028736;28;20403;-73
2022/10/15 00:50:17;;;;;;;1.20;0.50;;;16.20;99.90;;;;;;5012483;28;20418;-74
2022/10/15 00:52:45;;;;;;;0.47;0.40;;;16.10;99.90;;;;;;5029969;28;20745;-74
2022/10/15 00:55:16;;;;;;;1.00;0.40;;;16.20;99.90;;;;;;5030106;28;20461;-74
2022/10/15 00:57:43;;;;;;;0.50;0.50;;;16.30;99.90;;;;;;5029806;28;20902;-74
2022/10/15 01:00:14;;;;;;;0.67;0.50;;;16.30;99.90;;;;;;5029764;28;20491;-73
2022/10/15 01:02:40;;;;;;;1.00;0.60;;;16.20;99.90;;;;;;5029283;28;20456;-73
2022/10/15 01:05:07;;;;;;;0.60;0.40;;;16.10;99.90;;;;;;5030191;28;20833;-73
2022/10/15 01:07:32;;;;;;;0.60;0.43;;;16.10;99.90;;;;;;5011966;28;20403;-74
2022/10/15 01:09:59;;;;;;;0.50;0.50;;;16.10;99.90;;;;;;5029976;28;20460;-73
2022/10/15 01:12:46;;;;;;;1.00;0.50;;;16.20;99.90;;;;;;5029655;28;20846;-75
2022/10/15 01:15:14;;;;;;;1.25;0.63;;;16.10;99.90;;;;;;5029837;28;20488;-73
2022/10/15 01:17:55;;;;;;;0.82;0.60;;;16.00;99.90;;;;;;5029547;28;20398;-75
2022/10/15 01:21:03;;;;;;;0.75;0.50;;;15.90;99.90;;;;;;5031159;28;20391;-76
2022/10/15 01:24:26;;;;;;;1.00;0.60;;;16.10;99.90;;;;;;5005225;28;20396;-75
2022/10/15 01:27:16;;;;;;;2.03;0.60;;;16.00;99.90;;;;;;4972525;28;20403;-76
2022/10/15 01:30:15;;;;;;;0.80;0.50;;;16.00;99.90;;;;;;4972491;28;20482;-73
2022/10/15 01:33:02;;;;;;;1.35;1.00;;;16.00;99.90;;;;;;5016853;28;20877;-74
2022/10/15 01:35:33;;;;;;;1.40;0.60;;;15.90;99.90;;;;;;5033353;28;20813;-75
2022/10/15 01:38:08;;;;;;;1.63;0.70;;;15.90;99.90;;;;;;5033538;28;20466;-75
2022/10/15 01:40:54;;;;;;;2.20;0.70;;;16.00;99.90;;;;;;5015800;28;20402;-74
2022/10/15 01:43:27;;;;;;;1.35;0.93;;;15.90;99.90;;;;;;5014874;28;20762;-75
2022/10/15 01:46:01;;;;;;;1.38;0.60;;;16.00;99.90;;;;;;5033383;28;20379;-75
2022/10/15 01:48:28;;;;;;;0.60;0.50;;;15.90;99.90;;;;;;5033083;28;20761;-76
2022/10/15 01:50:59;;;;;;;1.40;0.65;;;15.90;99.90;;;;;;5033077;28;21078;-76
2022/10/15 01:53:25;;;;;;;0.70;0.50;;;15.90;99.90;;;;;;5017304;28;20449;-76
2022/10/15 01:56:10;;;;;;;0.70;0.68;;;15.90;99.90;;;;;;5033084;28;20394;-77
2022/10/15 01:58:42;;;;;;;1.35;0.60;;;15.90;99.90;;;;;;5015574;28;20761;-76
2022/10/15 02:01:08;;;;;;;1.20;0.50;;;15.90;99.90;;;;;;5031736;28;20402;-76
2022/10/15 02:03:54;;;;;;;0.50;0.45;;;16.00;99.90;;;;;;5031566;28;20478;-75
2022/10/15 02:06:40;;;;;;;0.50;0.50;;;15.90;99.90;;;;;;5014607;28;20402;-76
2022/10/15 02:09:27;;;;;;;0.80;0.50;;;15.90;99.90;;;;;;5014872;28;20943;-76
2022/10/15 02:12:25;;;;;;;0.82;0.50;;;16.00;99.90;;;;;;5015076;28;20782;-75
2022/10/15 02:15:00;;;;;;;0.73;0.50;;;16.10;99.90;;;;;;5031168;28;20387;-76
2022/10/15 02:17:56;;;;;;;1.00;0.57;;;16.10;99.90;;;;;;5032835;28;20529;-76
2022/10/15 02:20:27;;;;;;;2.03;0.70;;;16.10;99.90;;;;;;5032509;28;20489;-76
2022/10/15 02:23:01;;;;;;;0.70;0.50;;;16.10;99.90;;;;;;5032493;28;20391;-74
2022/10/15 02:25:27;;;;;;;0.60;0.50;;;16.00;99.90;;;;;;5032333;28;20872;-75
2022/10/15 02:27:55;;;;;;;0.80;0.60;;;16.00;99.90;;;;;;5031294;28;20411;-75
2022/10/15 02:30:21;;;;;;;1.10;0.60;;;16.00;99.90;;;;;;5032246;28;20383;-75
2022/10/15 02:32:52;;;;;;;1.00;0.40;;;16.00;99.90;;;;;;5031036;28;20418;-74
2022/10/15 02:35:19;;;;;;;0.50;0.50;;;16.00;99.90;;;;;;5032409;28;20414;-75
2022/10/15 02:37:48;;;;;;;0.60;0.50;;;15.90;99.90;;;;;;5014677;28;20944;-75
2022/10/15 02:40:14;;;;;;;0.60;0.50;;;16.00;99.90;;;;;;5032377;28;20423;-74
2022/10/15 02:42:40;;;;;;;1.30;0.50;;;16.00;99.90;;;;;;5032155;28;20415;-74
2022/10/15 02:45:06;;;;;;;0.70;0.50;;;16.00;99.90;;;;;;5032211;28;20764;-75
2022/10/15 02:47:32;;;;;;;0.50;0.50;;;16.00;99.90;;;;;;5031975;28;20411;-74
2022/10/15 02:49:57;;;;;;;0.50;0.50;;;16.00;99.90;;;;;;5032219;28;20389;-74
2022/10/15 02:52:23;;;;;;;2.37;0.80;;;15.90;99.90;;;;;;5031998;28;20395;-74
2022/10/15 02:54:48;;;;;;;1.20;0.50;;;15.80;99.90;;;;;;5032002;28;20393;-75
2022/10/15 02:57:14;;;;;;;0.60;0.60;;;15.80;99.90;;;;;;5032252;28;20387;-74
2022/10/15 02:59:39;;;;;;;0.60;0.60;;;15.80;99.90;;;;;;5032145;28;20407;-75
2022/10/15 03:02:05;;;;;;;0.70;0.60;;;15.80;99.90;;;;;;5031843;28;20391;-75
2022/10/15 03:04:30;;;;;;;1.00;0.60;;;15.80;99.90;;;;;;5032015;28;20432;-74
2022/10/15 03:06:56;;;;;;;1.00;0.60;;;15.70;99.90;;;;;;5032298;28;20476;-74
2022/10/15 03:09:21;;;;;;;1.10;0.70;;;15.80;99.90;;;;;;5032480;28;20414;-75
2022/10/15 03:11:47;;;;;;;1.10;0.60;;;15.80;99.90;;;;;;5032593;28;20390;-75
2022/10/15 03:14:13;;;;;;;1.23;0.70;;;15.80;99.90;;;;;;5031531;28;20416;-75
2022/10/15 03:16:38;;;;;;;0.88;0.60;;;15.80;99.90;;;;;;5031921;28;20383;-75
2022/10/15 03:19:04;;;;;;;1.40;0.82;;;15.60;99.90;;;;;;5031524;28;20402;-74
2022/10/15 03:21:29;;;;;;;0.73;0.67;;;15.60;99.90;;;;;;5031149;28;20403;-74
2022/10/15 03:23:56;;;;;;;1.30;0.70;;;15.60;99.90;;;;;;5030649;28;20469;-75
2022/10/15 03:26:22;;;;;;;1.05;0.60;;;15.60;99.90;;;;;;5031599;28;20869;-76
2022/10/15 03:28:47;;;;;;;0.60;0.50;;;15.60;99.90;;;;;;5031474;28;20415;-75
2022/10/15 03:31:13;;;;;;;0.90;0.70;;;15.60;99.90;;;;;;5031692;28;20888;-75
2022/10/15 03:33:39;;;;;;;1.60;0.80;;;15.60;99.90;;;;;;5031500;28;20415;-74
2022/10/15 03:36:05;;;;;;;0.80;0.80;;;15.60;99.90;;;;;;5031604;28;20733;-75
2022/10/15 03:38:31;;;;;;;0.60;0.60;;;15.50;99.90;;;;;;5031473;28;20394;-75
2022/10/15 03:40:56;;;;;;;1.00;0.70;;;15.50;99.90;;;;;;5031842;28;20391;-75
2022/10/15 03:43:24;;;;;;;1.67;0.77;;;15.50;99.90;;;;;;5031336;28;20419;-76
2022/10/15 03:45:49;;;;;;;0.70;0.70;;;15.50;99.90;;;;;;5031535;28;20869;-75
2022/10/15 03:48:15;;;;;;;0.77;0.67;;;15.60;99.90;;;;;;5031478;28;20494;-75
2022/10/15 03:50:40;;;;;;;0.80;0.60;;;15.50;99.90;;;;;;5031469;28;20395;-75
2022/10/15 03:53:06;;;;;;;1.53;0.70;;;15.50;99.90;;;;;;5030918;28;20399;-74
2022/10/15 03:55:32;;;;;;;0.77;0.70;;;15.50;99.90;;;;;;5031035;28;20391;-74
2022/10/15 03:57:58;;;;;;;0.80;0.60;;;15.50;99.90;;;;;;5031356;28;20469;-73
2022/10/15 04:00:24;;;;;;;1.70;0.70;;;15.50;99.90;;;;;;5031285;28;20391;-76
2022/10/15 04:02:49;;;;;;;2.70;0.50;;;15.50;99.90;;;;;;5031122;28;20419;-75
2022/10/15 04:05:15;;;;;;;1.80;0.60;;;15.50;99.90;;;;;;5030771;28;21011;-76
2022/10/15 04:07:41;;;;;;;1.70;0.60;;;15.50;99.90;;;;;;5031221;28;20500;-75
2022/10/15 04:10:07;;;;;;;2.10;0.50;;;15.50;99.90;;;;;;5031146;28;20387;-74
2022/10/15 04:12:33;;;;;;;1.60;0.60;;;15.60;99.90;;;;;;5030880;28;20444;-75
2022/10/15 04:14:58;;;;;;;0.70;0.60;;;15.60;99.90;;;;;;5013175;28;20390;-74
2022/10/15 04:17:24;;;;;;;0.90;0.60;;;15.50;99.90;;;;;;5031026;28;20482;-75
2022/10/15 04:19:49;;;;;;;2.30;0.63;;;15.60;99.90;;;;;;5030584;28;20483;-75
2022/10/15 04:22:15;;;;;;;0.57;0.40;;;15.60;99.90;;;;;;5021375;28;20736;-75
2022/10/15 04:24:40;;;;;;;0.70;0.50;;;15.60;99.90;;;;;;4993093;28;20405;-75
2022/10/15 04:27:06;;;;;;;0.60;0.40;;;15.60;99.90;;;;;;5011146;28;20443;-76
2022/10/15 04:29:32;;;;;;;0.60;0.60;;;15.60;99.90;;;;;;5011087;28;20385;-75
2022/10/15 04:31:58;;;;;;;0.60;0.40;;;15.60;99.90;;;;;;5011062;28;20400;-75
2022/10/15 04:34:24;;;;;;;0.50;0.47;;;15.60;99.90;;;;;;5016239;28;20498;-73
2022/10/15 04:36:49;;;;;;;0.70;0.50;;;15.70;99.90;;;;;;5030438;28;20916;-73
2022/10/15 04:39:16;;;;;;;0.80;0.43;;;15.60;99.90;;;;;;5030741;28;20387;-74
2022/10/15 04:41:42;;;;;;;0.60;0.45;;;15.60;99.90;;;;;;5030699;28;20389;-74
2022/10/15 04:44:07;;;;;;;1.20;0.50;;;15.60;99.90;;;;;;5030285;28;20839;-73
2022/10/15 04:46:33;;;;;;;0.90;0.40;;;15.70;99.90;;;;;;5030526;28;20418;-74
2022/10/15 04:48:58;;;;;;;0.70;0.40;;;15.60;99.90;;;;;;5030359;28;20407;-75
2022/10/15 04:51:25;;;;;;;0.50;0.50;;;15.60;99.90;;;;;;5030106;28;20884;-74
2022/10/15 04:53:51;;;;;;;1.77;0.60;;;15.70;99.90;;;;;;5012090;28;20980;-75
2022/10/15 04:56:19;;;;;;;2.00;0.50;;;15.60;99.90;;;;;;5029676;28;20474;-75
2022/10/15 04:58:46;;;;;;;0.60;0.40;;;15.60;99.90;;;;;;5030411;28;20387;-75
2022/10/15 05:01:15;;;;;;;1.20;0.50;;;15.70;99.90;;;;;;5030258;28;20387;-75
2022/10/15 05:03:42;;;;;;;0.90;0.50;;;15.70;99.90;;;;;;5029965;28;20387;-75
2022/10/15 05:06:16;;;;;;;1.00;0.70;;;15.60;99.90;;;;;;5030172;28;20453;-76
2022/10/15 05:08:42;;;;;;;0.80;0.60;;;15.60;99.90;;;;;;5029597;28;20407;-73
2022/10/15 05:11:10;;;;;;;0.65;0.50;;;15.60;99.90;;;;;;5030029;28;20399;-74
2022/10/15 05:13:36;;;;;;;0.60;0.50;;;15.60;99.90;;;;;;5011916;28;20479;-74
2022/10/15 05:16:16;;;;;;;0.60;0.50;;;15.60;99.90;;;;;;5030093;28;20934;-73
2022/10/15 05:18:44;;;;;;;1.60;0.70;;;15.70;99.90;;;;;;5030176;28;20462;-73
2022/10/15 05:21:10;;;;;;;0.90;0.60;;;15.60;99.90;;;;;;5029248;28;20900;-73
2022/10/15 05:23:36;;;;;;;1.08;0.70;;;15.60;99.90;;;;;;5010227;28;20886;-74
2022/10/15 05:26:09;;;;;;;1.02;0.80;;;15.50;99.90;;;;;;5030346;28;20402;-74
2022/10/15 05:28:34;;;;;;;0.60;0.50;;;15.40;99.90;;;;;;5030089;28;20405;-74
2022/10/15 05:31:08;;;;;;;1.60;0.60;;;15.40;99.90;;;;;;5030051;28;20391;-74
2022/10/15 05:33:34;;;;;;;1.40;0.60;;;15.40;99.90;;;;;;5029871;28;20422;-74
2022/10/15 05:36:09;;;;;;;0.60;0.52;;;15.40;99.90;;;;;;5012253;28;20430;-74
2022/10/15 05:38:34;;;;;;;1.38;0.60;;;15.40;99.90;;;;;;5029817;28;20395;-74
2022/10/15 05:41:00;;;;;;;0.80;0.70;;;15.40;99.90;;;;;;5029440;28;20769;-74
2022/10/15 05:43:25;;;;;;;0.90;0.70;;;15.30;99.90;;;;;;5011919;28;20401;-74
2022/10/15 05:45:55;;;;;;;1.70;0.60;;;15.40;99.90;;;;;;5129267;23;20473;-75
2022/10/15 05:48:21;;;;;;;1.93;0.70;;;15.50;99.90;;;;;;5089674;28;20592;-73
2022/10/15 05:50:46;;;;;;;1.50;0.50;;;15.60;99.90;;;;;;5089800;28;20836;-73
2022/10/15 05:53:12;;;;;;;0.90;0.50;;;15.50;99.90;;;;;;5089911;28;20405;-73
2022/10/15 05:55:38;;;;;;;1.40;0.70;;;15.40;99.90;;;;;;5089202;28;20754;-74
2022/10/15 05:58:04;;;;;;;1.10;0.60;;;15.50;99.90;;;;;;5089951;28;20871;-74
2022/10/15 06:00:30;;;;;;;1.20;0.60;;;15.60;99.90;;;;;;5089584;28;20394;-73
2022/10/15 06:02:55;;;;;;;2.07;0.67;;;15.60;99.90;;;;;;5089646;28;20405;-74
2022/10/15 06:05:21;;;;;;;1.00;0.70;;;15.60;99.90;;;;;;5088546;28;20421;-73
2022/10/15 06:07:46;;;;;;;0.85;0.60;;;15.60;99.90;;;;;;5092968;28;20398;-75
2022/10/15 06:10:12;;;;;;;1.70;0.70;;;15.70;99.90;;;;;;5093341;28;20385;-74
2022/10/15 06:12:38;;;;;;;1.17;0.53;;;15.60;99.90;;;;;;5074663;28;20475;-74
2022/10/15 06:15:04;;;;;;;1.40;0.80;;;15.60;99.90;;;;;;5093424;28;20420;-74
2022/10/15 06:17:30;;;;;;;2.88;0.70;;;15.60;99.90;;;;;;5093295;28;20386;-74
2022/10/15 06:19:55;;;;;;;2.30;1.00;;;15.60;99.90;;;;;;5093240;28;20717;-73
2022/10/15 06:22:21;;;;;;;2.70;0.80;;;15.70;99.90;;;;;;5092841;28;20386;-74
2022/10/15 06:24:50;;;;;;;2.00;0.50;;;15.70;99.90;;;;;;5092896;28;20410;-73
2022/10/15 06:27:15;;;;;;;1.73;0.90;;;15.60;99.90;;;;;;5093095;28;20412;-73
2022/10/15 06:29:41;;;;;;;0.90;0.60;;;15.80;99.90;;;;;;5093201;28;20728;-74
2022/10/15 06:32:10;;;;;;;2.50;0.70;;;15.70;99.90;;;;;;5093062;28;20378;-73
2022/10/15 06:34:36;;;;;;;1.27;0.60;;;15.80;99.90;;;;;;5074139;28;20469;-73
2022/10/15 06:37:01;;;;;;;1.13;0.80;;;15.90;99.90;;;;;;5092834;28;20477;-72
2022/10/15 06:39:27;;;;;;;2.20;0.80;;;15.90;99.90;;;;;;5091699;28;20440;-71
2022/10/15 06:41:52;;;;;;;2.33;1.07;;;15.90;99.90;;;;;;5092869;28;20385;-71
2022/10/15 06:44:18;;;;;;;1.80;1.00;;;15.80;99.90;;;;;;5091099;28;20401;-73
2022/10/15 06:46:43;;;;;;;0.98;0.70;;;15.70;99.90;;;;;;5092581;28;20776;-73
2022/10/15 06:49:09;;;;;;;2.80;0.90;;;15.60;99.90;;;;;;5092672;28;20405;-73
2022/10/15 06:51:36;;;;;;;1.23;0.87;;;15.50;99.90;;;;;;5092771;28;20378;-73
2022/10/15 06:54:02;;;;;;;2.17;0.80;;;15.70;99.90;;;;;;5092333;28;20463;-74
2022/10/15 06:56:27;;;;;;;1.25;0.80;;;15.70;99.90;;;;;;5092652;28;20421;-73
2022/10/15 06:58:53;;;;;;;3.47;1.30;;;15.70;99.90;;;;;;5092733;28;20382;-73
2022/10/15 07:01:18;;;;;;;2.10;0.90;;;15.80;99.90;;;;;;5092281;28;20416;-73
2022/10/15 07:03:47;;;;;;;1.30;0.80;;;15.80;99.90;;;;;;5091074;28;20394;-73
2022/10/15 07:06:13;;;;;;;1.75;0.93;;;15.70;99.90;;;;;;5071998;28;20432;-74
2022/10/15 07:08:39;;;;;;;1.92;0.80;;;16.00;99.90;;;;;;5090674;28;20772;-73
2022/10/15 07:11:06;;;;;;;1.85;0.63;;;16.00;99.90;;;;;;5072604;28;20756;-72
2022/10/15 07:13:31;;;;;;;1.43;0.80;;;16.00;99.90;;;;;;5085635;28;20767;-73
2022/10/15 07:15:57;;;;;;;0.80;0.60;;;16.10;99.90;;;;;;5088397;28;20442;-73
2022/10/15 07:18:22;;;;;;;1.80;0.90;;;16.10;99.90;;;;;;5085628;28;20410;-72
2022/10/15 07:20:48;;;;;;;0.80;0.60;;;16.10;99.90;;;;;;5072818;28;20413;-73
2022/10/15 07:23:13;;;;;;;2.40;1.07;;;16.10;99.90;;;;;;5088071;28;20394;-73
2022/10/15 07:25:39;;;;;;;0.80;0.80;;;16.30;99.90;;;;;;5089549;28;20385;-72
2022/10/15 07:28:05;;;;;;;4.40;1.00;;;16.30;99.90;;;;;;5087399;28;20408;-73
2022/10/15 07:30:31;;;;;;;1.85;0.73;;;16.30;99.90;;;;;;5085664;28;20406;-72
2022/10/15 07:32:58;;;;;;;3.08;0.65;;;16.30;99.90;;;;;;5072025;28;20412;-73
2022/10/15 07:35:25;;;;;;;0.70;0.60;;;16.30;99.90;;;;;;5086046;28;20402;-73
2022/10/15 07:37:51;;;;;;;2.15;0.70;;;16.30;99.90;;;;;;5089912;28;20412;-72
2022/10/15 07:40:17;;;;;;;2.33;0.87;;;16.50;99.90;;;;;;5084952;28;20433;-72
2022/10/15 07:42:42;;;;;;;1.20;0.60;;;16.60;99.90;;;;;;5087777;28;20406;-72
2022/10/15 07:45:08;;;;;;;1.50;0.73;;;16.60;99.90;;;;;;5087564;28;20428;-72
2022/10/15 07:47:34;;;;;;;1.40;0.70;;;16.70;99.90;;;;;;5088787;28;20690;-72
2022/10/15 07:49:59;;;;;;;1.00;0.50;;;16.70;99.90;;;;;;5085841;28;20401;-72
2022/10/15 07:52:25;;;;;;;2.10;0.80;;;16.80;99.90;;;;;;5085404;28;20901;-72
2022/10/15 07:54:51;;;;;;;1.70;0.90;;;16.80;99.90;;;;;;5086388;28;20474;-73
2022/10/15 07:57:17;;;;;;;3.10;0.70;;;16.90;99.90;;;;;;5085773;28;20497;-73
2022/10/15 07:59:42;;;;;;;1.45;0.70;;;17.00;99.90;;;;;;5081989;28;20411;-74
2022/10/15 08:02:15;;;;;;;1.43;0.90;;;16.90;99.90;;;;;;5089525;28;20390;-72
2022/10/15 08:04:41;;;;;;;0.90;0.60;;;16.90;99.90;;;;;;5088140;28;20405;-73
2022/10/15 08:07:06;;;;;;;2.63;0.80;;;16.90;99.90;;;;;;5089334;28;20398;-72
2022/10/15 08:09:32;;;;;;;1.10;0.93;;;16.90;99.90;;;;;;5085500;28;20786;-72
2022/10/15 08:11:57;;;;;;;1.20;1.00;;;17.00;99.90;;;;;;5087288;28;20811;-72
2022/10/15 08:14:23;;;;;;;0.60;0.50;;;17.00;99.90;;;;;;5089621;28;20856;-73
2022/10/15 08:16:48;;;;;;;2.60;0.70;;;17.10;99.90;;;;;;5089530;28;20406;-73
2022/10/15 08:19:16;;;;;;;1.20;0.80;;;17.20;99.90;;;;;;5086750;28;20394;-72
2022/10/15 08:21:45;;;;;;;3.00;0.90;;;17.30;99.90;;;;;;5088549;28;20421;-73
2022/10/15 08:24:11;;;;;;;1.90;0.88;;;17.40;99.90;;;;;;5085030;28;20767;-74
2022/10/15 08:26:36;;;;;;;1.30;0.80;;;17.50;99.90;;;;;;5087369;28;20411;-73
2022/10/15 08:29:05;;;;;;;2.60;0.50;;;17.60;99.90;;;;;;5088021;28;20409;-72
2022/10/15 08:31:30;;;;;;;1.30;0.70;;;17.50;99.90;;;;;;5086678;28;20487;-73
2022/10/15 08:33:59;;;;;;;2.60;0.90;;;17.40;99.90;;;;;;5084338;28;21093;-72
2022/10/15 08:36:25;;;;;;;1.97;0.90;;;17.40;99.90;;;;;;5083220;28;20429;-74
2022/10/15 08:38:53;;;;;;;3.00;0.80;;;17.30;99.90;;;;;;5086064;28;20426;-73
2022/10/15 08:41:39;;;;;;;1.70;0.80;;;17.30;99.90;;;;;;5086072;28;20454;-73
2022/10/15 08:44:11;;;;;;;0.63;0.60;;;17.20;99.90;;;;;;5087044;28;20402;-72
2022/10/15 08:46:43;;;;;;;2.50;0.80;;;17.20;99.90;;;;;;5068113;28;20414;-74
2022/10/15 08:49:47;;;;;;;1.00;0.70;;;17.00;99.90;;;;;;5067247;28;20413;-73
2022/10/15 08:52:21;;;;;;;1.73;0.80;;;17.00;99.90;;;;;;5087238;28;20402;-73
2022/10/15 08:54:46;;;;;;;1.60;0.80;;;17.00;99.90;;;;;;5084000;28;20478;-73
2022/10/15 08:57:19;;;;;;;1.33;0.60;;;17.00;99.90;;;;;;5078323;28;20545;-73
2022/10/15 09:00:01;;;;;;;1.97;0.63;;;16.90;99.90;;;;;;5085007;28;20398;-74
2022/10/15 09:02:57;;;;;;;1.80;0.90;;;16.90;99.90;;;;;;5080864;28;20498;-74
2022/10/15 09:05:32;;;;;;;1.73;0.70;;;16.90;99.90;;;;;;5088891;28;20402;-74
2022/10/15 09:08:21;;;;;;;1.90;0.90;;;17.00;99.90;;;;;;5068693;28;20404;-74
2022/10/15 09:10:54;;;;;;;1.92;0.80;;;17.10;99.90;;;;;;5081898;28;20390;-74
2022/10/15 09:13:31;;;;;;;0.85;0.68;;;17.10;99.90;;;;;;5069560;28;20394;-74
2022/10/15 09:16:08;;;;;;;1.00;0.70;;;17.20;99.90;;;;;;5087565;28;20397;-74
2022/10/15 09:18:36;;;;;;;1.70;0.90;;;17.20;99.90;;;;;;5087099;28;20417;-74
2022/10/15 09:21:04;;;;;;;0.80;0.50;;;17.20;99.90;;;;;;5085712;28;20913;-74
2022/10/15 09:23:33;;;;;;;2.60;0.80;;;17.30;99.90;;;;;;5063975;28;20469;-74
2022/10/15 09:26:28;;;;;;;0.77;0.70;;;17.30;99.90;;;;;;5085192;28;20404;-72
2022/10/15 09:28:53;;;;;;;0.70;0.70;;;17.40;99.90;;;;;;5087099;28;20485;-74
2022/10/15 09:31:24;;;;;;;1.23;0.73;;;17.30;99.90;;;;;;5080007;28;20540;-73
2022/10/15 09:33:54;;;;;;;2.00;0.80;;;17.40;99.90;;;;;;5081585;28;20485;-74
2022/10/15 09:36:31;;;;;;;1.73;0.50;;;17.50;99.90;;;;;;5086929;28;20550;-73
2022/10/15 09:38:57;;;;;;;1.00;0.70;;;17.50;99.90;;;;;;5086474;28;20488;-74
2022/10/15 09:41:28;;;;;;;1.05;0.70;;;17.50;99.90;;;;;;5089139;28;20801;-75
2022/10/15 09:43:58;;;;;;;1.30;0.70;;;17.60;99.90;;;;;;5092443;28;20392;-74
2022/10/15 09:46:23;;;;;;;1.83;0.80;;;17.60;99.90;;;;;;5093441;28;20409;-74
2022/10/15 09:48:54;;;;;;;1.00;0.70;;;17.50;99.90;;;;;;5093356;28;20894;-74
2022/10/15 09:51:39;;;;;;;1.55;1.30;;;17.50;99.90;;;;;;5092644;28;20382;-74
2022/10/15 09:54:41;;;;;;;1.10;0.63;;;17.50;99.90;;;;;;5079825;28;20403;-74
2022/10/15 09:57:10;;;;;;;1.35;0.77;;;17.60;99.90;;;;;;5045756;28;20900;-76
2022/10/15 09:59:35;;;;;;;1.70;0.80;;;17.60;99.90;;;;;;5085234;28;20399;-74
2022/10/15 10:02:15;;;;;;;2.00;0.70;;;17.60;99.90;;;;;;5087389;28;20409;-74
2022/10/15 10:04:41;;;;;;;1.70;0.70;;;17.60;99.90;;;;;;5080089;28;20415;-74
2022/10/15 10:07:33;;;;;;;2.80;0.65;;;17.60;99.90;;;;;;5087492;28;20394;-76
2022/10/15 10:10:22;;;;;;;1.00;0.60;;;17.60;99.90;;;;;;5071088;28;20402;-75
2022/10/15 10:12:48;;;;;;;2.97;0.85;;;17.60;99.90;;;;;;5072317;28;20446;-76
2022/10/15 10:15:41;;;;;;;2.30;0.83;;;17.60;99.90;;;;;;5054670;28;20431;-75
2022/10/15 10:18:24;;;;;;;1.73;0.70;;;17.50;99.90;;;;;;5072590;28;20388;-74
2022/10/15 10:21:00;;;;;;;1.80;0.80;;;17.50;99.90;;;;;;5072196;28;20384;-74
2022/10/15 10:23:34;;;;;;;1.00;0.68;;;17.50;99.90;;;;;;5091621;28;20451;-76
2022/10/15 10:26:09;;;;;;;0.80;0.70;;;17.60;99.90;;;;;;5079783;28;20408;-74
2022/10/15 10:28:54;;;;;;;3.22;0.80;;;17.60;99.90;;;;;;5108403;22;20430;-70
2022/10/15 10:31:29;;;;;;;1.60;0.70;;;17.70;99.90;;;;;;5088360;28;20402;-71
2022/10/15 10:33:55;;;;;;;1.93;0.80;;;17.70;99.90;;;;;;5092829;28;20373;-71
2022/10/15 10:36:27;;;;;;;0.90;0.77;;;17.60;99.90;;;;;;5093060;28;20728;-71
2022/10/15 10:39:13;;;;;;;2.60;0.70;;;17.80;99.90;;;;;;5092736;28;20382;-70
2022/10/15 10:41:55;;;;;;;1.13;0.75;;;17.80;99.90;;;;;;5093070;28;20390;-69
2022/10/15 10:44:21;;;;;;;1.20;0.80;;;17.80;99.90;;;;;;5092292;28;20843;-69
2022/10/15 10:47:19;;;;;;;1.60;0.80;;;17.80;99.90;;;;;;5091626;28;20417;-69
2022/10/15 10:49:47;;;;;;;2.83;0.90;;;17.80;99.90;;;;;;5089124;28;20394;-70
2022/10/15 10:52:25;;;;;;;1.50;0.70;;;17.80;99.90;;;;;;5088085;28;20425;-69
2022/10/15 10:55:10;;;;;;;2.05;1.00;;;17.80;99.90;;;;;;5070768;28;20401;-70
2022/10/15 10:57:46;;;;;;;1.50;0.70;;;17.70;99.90;;;;;;5076509;28;20831;-71
2022/10/15 11:00:17;;;;;;;4.13;0.80;;;17.80;99.90;;;;;;5092275;28;20428;-70
2022/10/15 11:02:42;;;;;;;2.35;1.00;;;17.90;99.90;;;;;;5092015;28;20430;-70
2022/10/15 11:05:10;;;;;;;1.00;0.70;;;18.00;99.90;;;;;;5092179;28;20381;-71
2022/10/15 11:07:59;;;;;;;2.63;1.10;;;18.20;99.90;;;;;;5091909;28;20397;-70
2022/10/15 11:10:38;;;;;;;1.45;0.70;;;18.30;99.90;;;;;;5091818;28;20473;-73
2022/10/15 11:13:29;;;;;;;2.30;1.10;;;18.40;99.90;;;;;;5091170;28;20382;-72
2022/10/15 11:16:15;;;;;;;3.50;0.93;;;18.50;99.90;;;;;;5078350;28;20401;-72
2022/10/15 11:18:51;;;;;;;2.00;0.88;;;18.60;99.90;;;;;;5091915;28;20385;-71
2022/10/15 11:21:27;;;;;;;0.80;0.70;;;18.70;99.90;;;;;;5086734;28;20414;-73
2022/10/15 11:24:19;;;;;;;2.38;0.70;;;18.70;99.90;;;;;;5079472;28;20478;-73
2022/10/15 11:26:44;;;;;;;2.67;1.30;;;18.70;99.90;;;;;;5076374;28;20408;-72
2022/10/15 11:29:28;;;;;;;1.10;0.60;;;18.80;99.90;;;;;;5082822;28;20405;-72
2022/10/15 11:32:27;;;;;;;1.20;0.70;;;18.90;99.90;;;;;;5073332;28;20379;-71
2022/10/15 11:35:32;;;;;;;1.70;0.60;;;19.10;99.90;;;;;;5090535;28;20433;-74
2022/10/15 11:38:07;;;;;;;1.73;0.68;;;19.20;99.90;;;;;;5068263;28;20435;-72
2022/10/15 11:40:57;;;;;;;0.70;0.70;;;19.60;99.90;;;;;;5091447;28;20500;-71
2022/10/15 11:43:48;;;;;;;1.40;0.60;;;20.20;99.90;;;;;;5060524;28;20926;-70
2022/10/15 11:46:34;;;;;;;0.95;0.70;;;20.00;99.90;;;;;;5079254;28;20423;-71
2022/10/15 11:49:22;;;;;;;3.00;0.70;;;19.80;99.90;;;;;;5083972;28;20421;-71
2022/10/15 11:52:18;;;;;;;2.20;0.90;;;19.50;99.90;;;;;;5072397;28;20413;-72
2022/10/15 11:54:56;;;;;;;1.80;0.80;;;19.20;99.90;;;;;;5083417;28;20396;-71
2022/10/15 11:57:24;;;;;;;1.25;0.70;;;19.20;99.90;;;;;;5066373;28;20390;-72
2022/10/15 11:59:59;;;;;;;0.90;0.80;;;19.20;99.90;;;;;;5078120;28;20480;-73
2022/10/15 12:02:36;;;;;;;3.22;0.73;;;19.30;99.90;;;;;;5082238;28;20463;-71
2022/10/15 12:05:37;;;;;;;2.10;0.93;;;19.20;99.90;;;;;;5088631;28;20390;-72
2022/10/15 12:08:04;;;;;;;2.13;0.85;;;18.90;99.90;;;;;;5083263;28;20412;-71
2022/10/15 12:11:02;;;;;;;1.10;0.60;;;18.90;99.90;;;;;;5082148;28;20395;-71
2022/10/15 12:13:42;;;;;;;2.10;0.80;;;19.00;99.90;;;;;;5083535;28;20391;-72
2022/10/15 12:16:35;;;;;;;1.00;0.70;;;18.90;99.90;;;;;;5068125;28;20409;-72
2022/10/15 12:19:16;;;;;;;0.70;0.60;;;18.90;99.90;;;;;;5077972;28;20452;-72
2022/10/15 12:21:54;;;;;;;2.60;0.60;;;18.80;99.90;;;;;;5074418;28;20781;-72
2022/10/15 12:24:51;;;;;;;2.00;0.90;;;18.80;99.90;;;;;;5082940;28;20455;-71
2022/10/15 12:27:19;;;;;;;1.30;0.80;;;18.70;99.90;;;;;;5064510;28;20401;-72
2022/10/15 12:29:49;;;;;;;1.88;0.80;;;18.70;99.90;;;;;;5076561;28;20416;-71
2022/10/15 12:32:26;;;;;;;1.60;0.80;;;18.60;99.90;;;;;;5085929;28;20489;-72
2022/10/15 12:35:01;;;;;;;2.20;0.95;;;18.70;99.90;;;;;;5078584;28;21067;-71
2022/10/15 12:37:30;;;;;;;0.90;0.70;;;18.60;99.90;;;;;;5077452;28;20904;-72
2022/10/15 12:39:58;;;;;;;1.10;0.70;;;18.50;99.90;;;;;;5091211;28;20385;-72
2022/10/15 12:42:32;;;;;;;1.70;0.80;;;18.50;99.90;;;;;;5090416;28;20457;-71
2022/10/15 12:45:01;;;;;;;1.45;0.90;;;18.50;99.90;;;;;;5090636;28;20382;-71
2022/10/15 12:47:49;;;;;;;2.00;0.70;;;18.60;99.90;;;;;;5090565;28;20397;-71
2022/10/15 12:50:26;;;;;;;0.95;0.82;;;18.60;99.90;;;;;;5090629;28;20394;-71
2022/10/15 12:52:52;;;;;;;1.60;0.80;;;18.70;99.90;;;;;;5089520;28;20476;-71
2022/10/15 12:55:31;;;;;;;1.20;0.60;;;18.80;99.90;;;;;;5090455;28;20382;-72
2022/10/15 12:58:21;;;;;;;1.40;0.80;;;18.70;99.90;;;;;;5090553;28;20382;-71
2022/10/15 13:00:47;;;;;;;0.95;0.85;;;18.70;99.90;;;;;;5089822;28;20390;-72
2022/10/15 13:03:33;;;;;;;2.90;1.03;;;18.60;99.90;;;;;;5090145;28;20378;-71
2022/10/15 13:06:23;;;;;;;1.00;0.80;;;18.60;99.90;;;;;;5090290;28;20386;-72
2022/10/15 13:09:10;;;;;;;1.70;0.90;;;18.40;99.90;;;;;;5070120;28;20443;-72
2022/10/15 13:11:47;;;;;;;1.00;0.90;;;18.40;99.90;;;;;;5070078;28;20393;-71